createdAt,value
2018-11-22T12:18:11.396Z,97996.36
2018-11-22T12:20:43.034Z,98003.65
2018-11-22T12:23:12.460Z,97995.41
2018-11-22T12:25:41.740Z,97996.22
2018-11-22T12:28:11.067Z,97995.72
2018-11-22T12:30:40.338Z,98003.69
2018-11-22T12:33:19.843Z,98005.89
2018-11-22T12:35:55.176Z,98004.30
2018-11-22T12:38:31.504Z,98013.56
2018-11-22T12:41:00.791Z,98012.40
2018-11-22T12:43:30.074Z,98003.38
2018-11-22T12:45:59.970Z,98005.62
2018-11-22T12:48:29.296Z,98009.42
2018-11-22T12:50:59.540Z,98005.20
2018-11-22T12:53:29.143Z,98002.81
2018-11-22T12:55:58.398Z,97998.14
2018-11-22T12:58:33.599Z,97998.59
2018-11-22T13:01:02.961Z,98001.04
2018-11-22T13:03:32.250Z,98001.81
2018-11-22T13:06:01.549Z,97998.25
2018-11-22T13:08:30.870Z,97995.60
2018-11-22T13:11:00.161Z,97993.26
2018-11-22T13:13:29.465Z,97994.41
2018-11-22T13:15:59.354Z,97996.03
2018-11-22T13:18:28.608Z,97993.17
2018-11-22T13:20:57.873Z,97993.73
2018-11-22T13:23:27.140Z,97997.35
2018-11-22T13:25:57.472Z,97983.70
2018-11-22T13:28:26.746Z,98003.95
2018-11-22T13:30:56.064Z,98010.05
2018-11-22T13:33:25.360Z,98004.17
2018-11-22T13:35:54.849Z,97999.91
2018-11-22T13:38:24.112Z,98004.73
2018-11-22T13:40:53.391Z,97995.66
2018-11-22T13:43:22.680Z,97995.57
2018-11-22T13:45:51.965Z,97999.77
2018-11-22T13:48:21.214Z,97999.16
2018-11-22T13:50:50.559Z,98000.12
2018-11-22T13:53:20.650Z,97993.87
2018-11-22T13:55:49.673Z,97994.41
2018-11-22T13:58:18.908Z,97983.80
2018-11-22T14:00:48.217Z,97992.69
2018-11-22T14:03:17.836Z,97987.39
2018-11-22T14:05:47.553Z,97990.99
2018-11-22T14:08:16.853Z,97988.42
2018-11-22T14:10:47.736Z,97983.87
2018-11-22T14:13:17.500Z,97993.98
2018-11-22T14:15:46.978Z,97988.55
2018-11-22T14:18:16.279Z,97993.20
2018-11-22T14:20:45.885Z,97990.29
2018-11-22T14:23:15.150Z,97999.24
2018-11-22T14:25:49.032Z,97987.27
2018-11-22T14:28:13.912Z,97985.81
2018-11-22T14:30:43.484Z,97992.45
2018-11-22T14:33:12.832Z,97994.28
2018-11-22T14:35:42.152Z,97996.36
2018-11-22T14:38:11.460Z,98011.55
2018-11-22T14:40:40.761Z,97995.82
2018-11-22T14:43:10.021Z,97990.81
2018-11-22T14:45:39.293Z,97989.35
2018-11-22T14:48:10.819Z,97994.70
2018-11-22T14:50:44.425Z,97990.02
2018-11-22T14:53:20.260Z,97994.88
2018-11-22T14:55:49.611Z,97997.09
2018-11-22T14:58:21.708Z,97990.81
2018-11-22T15:00:51.173Z,97993.33
2018-11-22T15:03:20.476Z,97987.65
2018-11-22T15:05:50.254Z,97992.67
2018-11-22T15:08:19.545Z,97990.16
2018-11-22T15:10:48.802Z,97991.48
2018-11-22T15:13:18.198Z,97995.00
2018-11-22T15:15:47.388Z,97987.91
2018-11-22T15:18:16.650Z,97994.95
2018-11-22T15:20:46.082Z,97996.46
2018-11-22T15:23:15.384Z,97988.56
2018-11-22T15:25:44.692Z,97991.63
2018-11-22T15:28:13.977Z,97996.12
2018-11-22T15:30:43.256Z,97998.08
2018-11-22T15:33:12.514Z,97999.80
2018-11-22T15:35:41.908Z,97999.27
2018-11-22T15:38:11.177Z,98004.95
2018-11-22T15:40:40.501Z,98013.93
2018-11-22T15:43:09.779Z,98011.34
2018-11-22T15:45:39.090Z,98013.96
2018-11-22T15:48:08.339Z,98013.42
2018-11-22T15:50:37.595Z,98018.45
2018-11-22T15:53:07.190Z,98020.74
2018-11-22T15:55:36.480Z,98021.06
2018-11-22T15:58:05.818Z,98017.88
2018-11-22T16:00:35.477Z,98021.73
2018-11-22T16:03:05.325Z,98021.75
2018-11-22T16:05:34.666Z,98023.11
2018-11-22T16:08:04.218Z,98024.20
2018-11-22T16:10:35.924Z,98024.45
2018-11-22T16:13:10.508Z,98022.80
2018-11-22T16:15:45.348Z,98022.72
2018-11-22T16:18:17.299Z,98021.13
2018-11-22T16:20:48.115Z,98018.25
2018-11-22T16:23:17.479Z,98018.86
2018-11-22T16:25:46.836Z,98015.42
2018-11-22T16:28:16.119Z,98016.38
2018-11-22T16:30:45.531Z,98015.06
2018-11-22T16:33:14.831Z,98016.27
2018-11-22T16:35:44.121Z,98010.98
2018-11-22T16:38:13.397Z,98014.63
2018-11-22T16:40:42.935Z,98009.77
2018-11-22T16:43:12.015Z,98017.02
2018-11-22T16:45:41.304Z,98052.87
2018-11-22T16:48:11.961Z,98014.98
2018-11-22T16:50:42.084Z,98025.46
2018-11-22T16:53:11.663Z,98022.23
2018-11-22T16:55:40.980Z,98035.48
2018-11-22T16:58:10.221Z,97990.92
2018-11-22T17:00:40.352Z,98016.72
2018-11-22T17:03:12.724Z,98019.02
2018-11-22T17:05:42.663Z,98015.58
2018-11-22T17:08:12.048Z,98024.16
2018-11-22T17:10:41.781Z,98019.75
2018-11-22T17:13:11.045Z,98024.27
2018-11-22T17:15:41.393Z,98023.02
2018-11-22T17:18:11.376Z,98015.92
2018-11-22T17:20:40.668Z,98027.13
2018-11-22T17:23:09.969Z,98029.36
2018-11-22T17:25:39.289Z,98029.77
2018-11-22T17:28:09.515Z,98027.61
2018-11-22T17:30:41.089Z,98029.30
2018-11-22T17:33:10.357Z,98032.59
2018-11-22T17:35:40.356Z,98030.02
2018-11-22T17:38:10.598Z,98027.24
2018-11-22T17:40:44.516Z,98024.00
2018-11-22T17:43:13.730Z,98027.73
2018-11-22T17:45:45.305Z,98026.64
2018-11-22T17:48:14.605Z,98030.11
2018-11-22T17:50:45.086Z,98028.43
2018-11-22T17:53:14.772Z,98041.38
2018-11-22T17:55:44.239Z,98039.20
2018-11-22T17:58:14.033Z,98036.67
2018-11-22T18:00:48.515Z,98043.11
2018-11-22T18:03:17.875Z,98039.31
2018-11-22T18:05:47.482Z,98047.39
2018-11-22T18:08:16.845Z,98051.28
2018-11-22T18:10:46.160Z,98054.52
2018-11-22T18:13:15.484Z,98048.17
2018-11-22T18:15:50.009Z,98041.70
2018-11-22T18:18:19.070Z,98045.62
2018-11-22T18:20:48.479Z,98038.02
2018-11-22T18:23:17.788Z,98044.31
2018-11-22T18:25:49.044Z,98047.60
2018-11-22T18:28:16.512Z,98058.77
2018-11-22T18:30:45.775Z,98054.84
2018-11-22T18:33:15.015Z,98062.88
2018-11-22T18:35:44.332Z,98069.55
2018-11-22T18:38:13.668Z,98063.94
2018-11-22T18:40:43.839Z,98071.45
2018-11-22T18:43:13.208Z,98069.39
2018-11-22T18:45:44.964Z,98068.95
2018-11-22T18:48:14.580Z,98070.11
2018-11-22T18:50:44.390Z,98068.80
2018-11-22T18:53:13.757Z,98069.41
2018-11-22T18:55:43.027Z,98065.52
2018-11-22T18:58:13.179Z,98064.86
2018-11-22T19:00:43.862Z,98068.20
2018-11-22T19:03:15.633Z,98069.55
2018-11-22T19:05:44.974Z,98066.73
2018-11-22T19:08:14.428Z,98071.91
2018-11-22T19:10:44.442Z,98073.55
2018-11-22T19:13:14.367Z,98073.58
2018-11-22T19:15:45.095Z,98082.23
2018-11-22T19:18:14.907Z,98085.20
2018-11-22T19:20:44.925Z,98083.89
2018-11-22T19:23:15.244Z,98083.57
2018-11-22T19:25:44.519Z,98083.63
2018-11-22T19:28:13.845Z,98087.17
2018-11-22T19:30:44.633Z,98078.75
2018-11-22T19:33:15.357Z,98079.55
2018-11-22T19:35:46.018Z,98083.70
2018-11-22T19:38:15.332Z,98089.30
2018-11-22T19:40:44.703Z,98091.78
2018-11-22T19:43:14.004Z,98090.64
2018-11-22T19:45:44.935Z,98093.64
2018-11-22T19:48:14.367Z,98095.25
2018-11-22T19:50:43.652Z,98095.44
2018-11-22T19:53:14.097Z,98085.27
2018-11-22T19:55:43.411Z,98086.55
2018-11-22T19:58:14.706Z,98089.91
2018-11-22T20:00:44.016Z,98085.70
2018-11-22T20:03:13.363Z,98093.39
2018-11-22T20:05:43.079Z,98095.92
2018-11-22T20:08:15.220Z,98094.09
2018-11-22T20:10:45.405Z,98097.13
2018-11-22T20:13:14.723Z,98091.50
2018-11-22T20:15:43.994Z,98093.33
2018-11-22T20:18:13.646Z,98096.16
2018-11-22T20:20:43.097Z,98088.65
2018-11-22T20:23:12.353Z,98091.97
2018-11-22T20:25:41.857Z,98091.33
2018-11-22T20:28:11.160Z,98091.19
2018-11-22T20:30:41.884Z,98093.45
2018-11-22T20:33:11.269Z,98081.69
2018-11-22T20:35:40.633Z,98093.62
2018-11-22T20:38:09.914Z,98092.02
2018-11-22T20:40:39.172Z,98093.02
2018-11-22T20:43:09.464Z,98092.48
2018-11-22T20:45:41.081Z,98091.80
2018-11-22T20:48:07.872Z,98090.31
2018-11-22T20:50:37.625Z,98093.80
2018-11-22T20:53:07.761Z,98101.84
2018-11-22T20:55:38.258Z,98090.48
2018-11-22T20:58:07.784Z,98098.08
2018-11-22T21:00:39.122Z,98100.91
2018-11-22T21:03:08.423Z,98101.38
2018-11-22T21:05:37.767Z,98096.98
2018-11-22T21:08:10.711Z,98092.23
2018-11-22T21:10:40.006Z,98101.88
2018-11-22T21:13:10.376Z,98109.42
2018-11-22T21:15:39.693Z,98101.11
2018-11-22T21:18:09.451Z,98097.64
2018-11-22T21:20:40.179Z,98100.77
2018-11-22T21:23:09.565Z,98098.02
2018-11-22T21:25:38.849Z,98101.44
2018-11-22T21:28:08.211Z,98107.46
2018-11-22T21:30:39.833Z,98112.92
2018-11-22T21:33:09.306Z,98107.48
2018-11-22T21:35:39.909Z,98103.66
2018-11-22T21:38:13.160Z,98106.05
2018-11-22T21:40:46.966Z,98096.83
2018-11-22T21:43:16.398Z,98106.13
2018-11-22T21:45:45.792Z,98107.97
2018-11-22T21:48:15.072Z,98104.38
2018-11-22T21:50:44.330Z,98107.06
2018-11-22T21:53:13.591Z,98109.59
2018-11-22T21:55:42.867Z,98108.94
2018-11-22T21:58:12.183Z,98101.93
2018-11-22T22:00:42.383Z,98100.59
2018-11-22T22:03:12.315Z,98100.48
2018-11-22T22:05:41.820Z,98099.17
2018-11-22T22:08:11.154Z,98108.14
2018-11-22T22:10:40.435Z,98105.70
2018-11-22T22:13:09.760Z,98106.73
2018-11-22T22:15:39.318Z,98101.52
2018-11-22T22:18:09.489Z,98104.49
2018-11-22T22:20:38.995Z,98102.59
2018-11-22T22:23:13.257Z,98099.18
2018-11-22T22:25:37.622Z,98104.23
2018-11-22T22:28:06.915Z,98116.61
2018-11-22T22:30:36.229Z,98099.45
2018-11-22T22:33:06.724Z,98112.27
2018-11-22T22:35:36.101Z,98101.77
2018-11-22T22:38:05.471Z,98110.83
2018-11-22T22:40:35.002Z,98106.24
2018-11-22T22:43:04.355Z,98109.98
2018-11-22T22:45:34.114Z,98107.31
2018-11-22T22:48:03.436Z,98106.81
2018-11-22T22:50:33.096Z,98100.12
2018-11-22T22:53:02.477Z,98104.98
2018-11-22T22:55:31.958Z,98097.59
2018-11-22T22:58:01.217Z,98108.66
2018-11-22T23:00:39.463Z,98098.64
2018-11-22T23:03:08.971Z,98101.22
2018-11-22T23:05:38.741Z,98098.80
2018-11-22T23:08:08.004Z,98097.09
2018-11-22T23:10:37.332Z,98097.75
2018-11-22T23:13:07.163Z,98102.20
2018-11-22T23:15:36.496Z,98103.16
2018-11-22T23:18:05.795Z,98096.41
2018-11-22T23:20:36.286Z,98094.41
2018-11-22T23:23:05.788Z,98094.90
2018-11-22T23:25:35.082Z,98092.28
2018-11-22T23:28:04.342Z,98088.70
2018-11-22T23:30:34.665Z,98087.11
2018-11-22T23:33:06.099Z,98083.01
2018-11-22T23:35:35.443Z,98083.20
2018-11-22T23:38:04.720Z,98089.86
2018-11-22T23:40:34.728Z,98085.76
2018-11-22T23:43:03.993Z,98086.74
2018-11-22T23:45:33.728Z,98089.56
2018-11-22T23:48:02.952Z,98082.26
2018-11-22T23:50:33.155Z,98081.89
2018-11-22T23:53:03.628Z,98085.66
2018-11-22T23:55:32.928Z,98077.80
2018-11-22T23:58:02.227Z,98082.72
